Map

Track Data

SID SEASON NUMBER BASIN SUBBASIN NAME ISO_TIME NATURE LAT LON WMO_WIND WMO_PRES WMO_AGENCY TRACK_TYPE DIST2LAND LANDFALL IFLAG USA_AGENCY USA_ATCF_ID USA_LAT USA_LON USA_RECORD USA_STATUS USA_WIND USA_PRES USA_SSHS USA_R34_NE USA_R34_SE USA_R34_SW USA_R34_NW USA_R50_NE USA_R50_SE USA_R50_SW USA_R50_NW USA_R64_NE USA_R64_SE USA_R64_SW USA_R64_NW USA_POCI USA_ROCI USA_RMW USA_EYE TOKYO_LAT TOKYO_LON TOKYO_GRADE TOKYO_WIND TOKYO_PRES TOKYO_R50_DIR TOKYO_R50_LONG TOKYO_R50_SHORT TOKYO_R30_DIR TOKYO_R30_LONG TOKYO_R30_SHORT TOKYO_LAND CMA_LAT CMA_LON CMA_CAT CMA_WIND CMA_PRES HKO_LAT HKO_LON HKO_CAT HKO_WIND HKO_PRES NEWDELHI_LAT NEWDELHI_LON NEWDELHI_GRADE NEWDELHI_WIND NEWDELHI_PRES NEWDELHI_CI NEWDELHI_DP NEWDELHI_POCI REUNION_LAT REUNION_LON REUNION_TYPE REUNION_WIND REUNION_PRES REUNION_TNUM REUNION_CI REUNION_RMW REUNION_R34_NE REUNION_R34_SE REUNION_R34_SW REUNION_R34_NW REUNION_R50_NE REUNION_R50_SE REUNION_R50_SW REUNION_R50_NW REUNION_R64_NE REUNION_R64_SE REUNION_R64_SW REUNION_R64_NW BOM_LAT BOM_LON BOM_TYPE BOM_WIND BOM_PRES BOM_TNUM BOM_CI BOM_RMW BOM_R34_NE BOM_R34_SE BOM_R34_SW BOM_R34_NW BOM_R50_NE BOM_R50_SE BOM_R50_SW BOM_R50_NW BOM_R64_NE BOM_R64_SE BOM_R64_SW BOM_R64_NW BOM_ROCI BOM_POCI BOM_EYE BOM_POS_METHOD BOM_PRES_METHOD NADI_LAT NADI_LON NADI_CAT NADI_WIND NADI_PRES WELLINGTON_LAT WELLINGTON_LON WELLINGTON_WIND WELLINGTON_PRES DS824_LAT DS824_LON DS824_STAGE DS824_WIND DS824_PRES TD9636_LAT TD9636_LON TD9636_STAGE TD9636_WIND TD9636_PRES TD9635_LAT TD9635_LON TD9635_WIND TD9635_PRES TD9635_ROCI NEUMANN_LAT NEUMANN_LON NEUMANN_CLASS NEUMANN_WIND NEUMANN_PRES MLC_LAT MLC_LON MLC_CLASS MLC_WIND MLC_PRES USA_GUST BOM_GUST BOM_GUST_PER REUNION_GUST REUNION_GUST_PER USA_SEAHGT USA_SEARAD_NE USA_SEARAD_SE USA_SEARAD_SW USA_SEARAD_NW STORM_SPEED STORM_DIR
1989246N16159 1989 95 WP MM SARAH 1989-09-03 00:00:00 NR 15.8000 159.100 main 2260 2249 O_________O___ jtwc_wp WP221989 15.8000 159.100 20 -1 15.8000 159.100 1 20 11 287
1989246N16159 1989 95 WP MM SARAH 1989-09-03 03:00:00 NR 15.9626 158.558 main 2259 2247 P_________P___ WP221989 15.9379 158.528 20 -1 15.9873 158.589 1 20 11 288
1989246N16159 1989 95 WP MM SARAH 1989-09-03 06:00:00 NR 16.1346 158.041 main 2246 2245 O_________P___ jtwc_wp WP221989 16.1000 158.000 20 -1 16.1691 158.082 1 20 10 291
1989246N16159 1989 95 WP MM SARAH 1989-09-03 09:00:00 NR 16.3206 157.563 main 2252 2248 P_________P___ WP221989 16.2998 157.542 20 -1 16.3414 157.584 1 20 10 292
1989246N16159 1989 95 WP MM SARAH 1989-09-03 12:00:00 NR 16.5000 157.100 main 2256 2250 O_________O___ jtwc_wp WP221989 16.5000 157.100 20 -1 16.5000 157.100 1 20 10 290
1989246N16159 1989 95 WP MM SARAH 1989-09-03 15:00:00 NR 16.6476 156.622 main 2250 2250 P_________P___ WP221989 16.6499 156.615 20 -1 16.6453 156.629 1 20 10 288
1989246N16159 1989 95 WP MM SARAH 1989-09-03 18:00:00 NR 16.7977 156.123 main 2257 2255 O_________P___ jtwc_wp WP221989 16.8000 156.100 20 -1 16.7955 156.145 1 20 10 289
1989246N16159 1989 95 WP MM SARAH 1989-09-03 21:00:00 NR 16.9750 155.604 main 2266 2261 P_________P___ WP221989 16.9771 155.595 20 -1 16.9730 155.613 1 20 11 291
1989246N16159 1989 95 WP MM SARAH 1989-09-04 00:00:00 NR 17.2000 155.000 main 2274 2271 O_________O___ jtwc_wp WP221989 17.2000 155.000 20 -1 17.2000 155.000 1 20 14 292
1989246N16159 1989 95 WP MM SARAH 1989-09-04 03:00:00 NR 17.4852 154.251 main 2293 2289 P_________P___ WP221989 17.4700 154.245 20 -1 17.5003 154.258 1 20 16 292
1989246N16159 1989 95 WP MM SARAH 1989-09-04 06:00:00 NR 17.8242 153.417 main 2312 2247 O_________P___ jtwc_wp WP221989 17.8000 153.400 20 -1 17.8483 153.433 1 20 18 294
1989246N16159 1989 95 WP MM SARAH 1989-09-04 09:00:00 NR 18.2110 152.551 main 2247 2160 P_________P___ WP221989 18.2000 152.535 20 -1 18.2220 152.567 1 20 18 295
1989246N16159 1989 95 WP MM SARAH 1989-09-04 12:00:00 NR 18.6000 151.700 main 2160 2094 O_________O___ jtwc_wp WP221989 18.6000 151.700 20 -1 18.6000 151.700 1 20 17 296
1989246N16159 1989 95 WP MM SARAH 1989-09-04 15:00:00 NR 18.9274 150.967 main 2094 2029 P_________P___ WP221989 18.8991 151.007 22 -1 18.9558 150.928 1 21 15 295
1989246N16159 1989 95 WP MM SARAH 1989-09-04 18:00:00 NR 19.2557 150.229 main 2014 1951 O_________P___ jtwc_wp WP221989 19.2000 150.300 25 -1 19.3115 150.158 1 22 16 295
1989246N16159 1989 95 WP MM SARAH 1989-09-04 21:00:00 NR 19.6193 149.409 main 1946 1846 P_________P___ WP221989 19.5770 149.460 25 -1 19.6616 149.359 1 23 21 294
1989246N16159 1989 95 WP MM SARAH 1989-09-05 00:00:00 TS 20.1000 148.200 1004 tokyo main 1841 1769 OOO_______O___ jtwc_wp WP221989 20.0000 148.500 25 -1 20.5000 147.000 2 1004 0 0 0 20.5000 147.000 0 19 1002 20.0000 148.500 1 25 23 290
1989246N16159 1989 95 WP MM SARAH 1989-09-05 03:00:00 TS 20.4097 147.105 main 1765 1711 PPP_______P___ WP221989 20.4877 147.408 25 -1 20.5008 146.232 2 1003 0 0 20.2300 146.540 0 21 1002 20.3760 147.522 1 25 20 284
1989246N16159 1989 95 WP MM SARAH 1989-09-05 06:00:00 TS 20.5724 146.117 1002 tokyo main 1707 1681 OOO_______P___ jtwc_wp WP221989 20.9000 146.300 25 -1 20.5000 145.500 2 1002 0 0 0 20.0000 146.000 1 23 1002 20.7285 146.483 1 25 18 277
1989246N16159 1989 95 WP MM SARAH 1989-09-05 09:00:00 TS 20.6201 145.226 main 1678 1645 PPP_______P___ WP221989 21.1167 145.319 25 -1 20.4997 144.828 2 1001 0 0 19.8475 145.330 1 26 1001 21.0165 145.428 1 25 16 274
1989246N16159 1989 95 WP MM SARAH 1989-09-05 12:00:00 TS 20.6750 144.400 1000 tokyo main 1645 1617 OOO_______O___ jtwc_wp WP221989 21.2000 144.400 25 -1 20.5000 144.200 2 1000 0 0 0 19.8000 144.600 1 29 1000 21.2000 144.400 1 25 15 273
1989246N16159 1989 95 WP MM SARAH 1989-09-05 15:00:00 TS 20.7096 143.611 main 1613 1581 PPP_______P___ WP221989 21.2444 143.492 25 -1 20.4995 143.615 2 999 0 0 19.8472 143.900 1 29 999 21.2474 143.437 1 26 15 273
1989246N16159 1989 95 WP MM SARAH 1989-09-05 18:00:00 TS 20.7448 142.833 35 998 tokyo main 1577 1548 OOOO______P___ jtwc_wp WP221989 21.2000 142.600 25 -1 20.5000 143.000 3 35 998 0 9 60 60 0 20.0000 143.200 1 29 998 21.1000 142.900 TD 30 995 21.1906 142.515 1 27 14 270
1989246N16159 1989 95 WP MM SARAH 1989-09-05 21:00:00 TS 20.7148 142.064 main 1548 1518 PPPP______P___ WP221989 21.0723 141.685 27 -1 20.4997 142.287 3 35 997 0 9 60 60 20.2410 142.582 1 33 997 20.6800 142.199 TD 30 995 21.0635 141.635 1 28 15 266
1989246N16159 1989 95 WP MM SARAH 1989-09-06 00:00:00 TS 20.6526 141.253 35 996 tokyo main 1518 1499 OOOO______O___ jtwc_wp WP221989 20.9000 140.800 30 -1 20.5000 141.500 3 35 996 0 9 60 60 0 20.5000 141.800 2 38 996 20.4000 141.400 TD 30 995 20.9000 140.800 1 30 16 266
1989246N16159 1989 95 WP MM SARAH 1989-09-06 03:00:00 TS 20.6084 140.319 main 1496 1445 PPPP______P___ WP221989 20.7571 139.970 30 -1 20.4999 140.658 3 35 995 0 9 60 60 20.7048 140.543 2 38 996 20.3479 140.451 TD 30 995 20.7324 139.974 1 30 17 267
1989246N16159 1989 95 WP MM SARAH 1989-09-06 06:00:00 TS 20.5683 139.399 35 994 tokyo main 1445 1418 OOOO______P___ jtwc_wp WP221989 20.6000 139.200 30 -1 20.5000 139.800 3 35 994 0 9 60 60 0 20.8000 139.300 2 38 996 20.4000 139.500 TD 30 995 20.5414 139.194 1 30 16 265
1989246N16159 1989 95 WP MM SARAH 1989-09-06 09:00:00 TS 20.4780 138.627 main 1413 1390 PPPP______P___ WP221989 20.3922 138.470 30 -1 20.4926 138.947 3 35 994 0 9 60 60 20.7361 138.537 2 38 996 20.4143 138.713 TD 30 995 20.3547 138.467 1 30 14 262
1989246N16159 1989 95 WP MM SARAH 1989-09-06 12:00:00 TS 20.3800 137.960 35 994 tokyo main 1390 1369 OOOO______O___ jtwc_wp WP221989 20.2000 137.800 30 -1 20.5000 138.200 3 35 994 0 9 60 60 0 20.6000 138.000 2 38 996 20.4000 138.000 TD 30 995 20.2000 137.800 1 30 12 262
1989246N16159 1989 95 WP MM SARAH 1989-09-06 15:00:00 TS 20.3109 137.370 main 1369 1346 PPPP______P___ WP221989 20.0698 137.170 32 -1 20.5864 137.701 3 37 993 0 9 60 60 20.5069 137.508 2 38 996 20.3074 137.270 TD 32 992 20.0839 137.201 1 32 11 263
1989246N16159 1989 95 WP MM SARAH 1989-09-06 18:00:00 TS 20.2416 136.811 40 992 tokyo main 1351 1329 OOOO______P___ jtwc_wp WP221989 20.0000 136.600 35 0 20.6000 137.200 3 40 992 0 9 60 60 0 20.4000 137.000 2 38 996 20.2000 136.600 TS 35 990 20.0078 136.655 1 35 11 261
1989246N16159 1989 95 WP MM SARAH 1989-09-06 21:00:00 TS 20.1321 136.192 main 1336 1312 PPPP______P___ WP221989 19.9772 136.085 37 0 20.3506 136.414 3 42 991 0 9 205 130 20.2277 136.315 2 43 993 20.1272 136.013 TS 37 987 19.9779 136.132 1 37 12 261
1989246N16159 1989 95 WP MM SARAH 1989-09-07 00:00:00 TS 20.0600 135.580 45 990 tokyo main 1312 1294 OOOO______O___ jtwc_wp WP221989 20.0000 135.600 40 0 20.1000 135.600 3 45 990 0 1 350 200 0 20.1000 135.600 3 48 990 20.1000 135.500 TS 40 985 20.0000 135.600 2 40 11 267
1989246N16159 1989 95 WP MM SARAH 1989-09-07 03:00:00 TS 20.0749 135.039 main 1291 1264 PPPP______P___ WP221989 20.0196 135.130 42 0 20.0896 134.955 3 45 990 0 1 350 200 20.1048 134.970 3 48 990 20.1046 135.057 TS 40 985 20.0561 135.083 2 42 10 276
1989246N16159 1989 95 WP MM SARAH 1989-09-07 06:00:00 TS 20.1728 134.508 45 990 tokyo main 1264 1239 OOOO______P___ jtwc_wp WP221989 20.1000 134.600 45 0 20.2000 134.400 3 45 990 0 1 350 200 0 20.2000 134.400 3 48 990 20.2000 134.600 TS 40 985 20.1638 134.541 2 45 10 284
1989246N16159 1989 95 WP MM SARAH 1989-09-07 09:00:00 TS 20.3285 133.959 main 1239 1187 PPPP______P___ WP221989 20.2622 133.960 47 0 20.3343 133.922 3 47 987 0 1 350 200 20.3193 133.922 3 48 987 20.4121 134.060 TS 40 985 20.3147 133.929 2 47 12 288
1989246N16159 1989 95 WP MM SARAH 1989-09-07 12:00:00 TS 20.5400 133.320 50 985 tokyo main 1176 1111 OOOO______O___ jtwc_wp WP221989 20.5000 133.200 50 0 20.5000 133.400 4 50 985 0 1 350 200 0 20.5000 133.400 3 48 985 20.7000 133.400 TS 40 985 20.5000 133.200 2 50 14 289
1989246N16159 1989 95 WP MM SARAH 1989-09-07 15:00:00 TS 20.7806 132.555 main 1111 1025 PPPP______P___ WP221989 20.8068 132.368 52 0 20.5965 132.753 4 52 982 0 1 350 200 20.7040 132.754 3 48 985 20.9922 132.610 TS 42 985 20.8035 132.290 2 51 17 288
1989246N16159 1989 95 WP MM SARAH 1989-09-07 18:00:00 TS 21.0634 131.633 55 980 tokyo main 1018 930 OOOO______P___ jtwc_wp WP221989 21.1000 131.400 55 0 20.8000 131.900 4 55 980 9 30 30 1 350 200 0 21.0000 131.900 3 48 985 21.3000 131.700 TS 45 985 21.1172 131.263 2 52 20 290
1989246N16159 1989 95 WP MM SARAH 1989-09-07 21:00:00 TS 21.4532 130.581 main 933 837 PPPP______P___ WP221989 21.3401 130.281 55 0 21.3595 130.808 4 55 980 9 30 30 1 375 250 21.5320 130.808 3 48 985 21.6874 130.829 TS 45 985 21.3469 130.179 2 53 22 286
1989246N16159 1989 95 WP MM SARAH 1989-09-08 00:00:00 TS 21.6800 129.380 55 980 tokyo main 827 694 OOOO______O___ jtwc_wp WP221989 21.4000 129.100 55 0 21.8000 129.500 4 55 980 9 30 30 4 400 300 0 21.9000 129.500 3 48 985 21.9000 129.700 TS 45 985 21.4000 129.100 2 55 24 272
1989246N16159 1989 95 WP MM SARAH 1989-09-08 03:00:00 TS 21.5496 127.972 main 689 550 PPPP______P___ WP221989 21.2049 127.947 55 0 21.7621 127.966 4 57 977 9 40 40 4 450 300 21.8042 127.989 3 53 982 21.7844 127.969 TS 47 982 21.1922 127.992 2 56 26 257
1989246N16159 1989 95 WP MM SARAH 1989-09-08 06:00:00 TS 21.1001 126.666 60 975 tokyo main 550 429 OOOO______P___ jtwc_wp WP221989 20.8000 126.900 55 0 21.3000 126.600 4 60 975 9 50 50 4 500 300 0 21.3000 126.600 3 58 980 21.3000 126.300 STS 50 980 20.8007 126.928 2 57 24 241
1989246N16159 1989 95 WP MM SARAH 1989-09-08 09:00:00 TS 20.3772 125.712 main 420 323 PPPP______P___ WP221989 20.2947 125.987 57 0 20.4359 125.754 4 60 975 9 55 55 4 500 300 20.4289 125.581 3 58 980 20.4431 125.236 STS 50 980 20.2834 126.001 2 58 21 224
1989246N16159 1989 95 WP MM SARAH 1989-09-08 12:00:00 TS 19.5800 125.120 60 975 tokyo main 323 271 OOOO______O___ jtwc_wp WP221989 19.7000 125.300 60 0 19.5000 125.300 4 60 975 9 60 60 4 500 300 0 19.5000 125.000 3 58 980 19.5000 124.700 STS 50 980 19.7000 125.300 2 60 17 210
1989246N16159 1989 95 WP MM SARAH 1989-09-08 15:00:00 TS 18.9426 124.842 main 269 263 PPPP______P___ WP221989 19.0620 124.853 62 0 18.9022 125.039 4 60 975 9 60 60 4 500 300 18.9020 124.867 3 58 980 18.7795 124.594 STS 52 977 19.0674 124.859 2 62 12 195
1989246N16159 1989 95 WP MM SARAH 1989-09-08 18:00:00 TS 18.4600 124.800 60 975 tokyo main 263 263 OOOO______O___ jtwc_wp WP221989 18.5000 124.600 65 1 18.5000 125.000 4 60 975 9 60 60 4 500 300 0 18.5000 125.000 3 58 980 18.3000 124.800 STS 55 975 18.5000 124.600 3 65 8 0
1989246N16159 1989 95 WP MM SARAH 1989-09-08 21:00:00 TS 18.1443 124.860 main 275 275 PPPP______P___ WP221989 18.1249 124.428 65 1 18.1824 125.138 4 60 975 9 60 60 4 450 300 18.1824 125.175 3 58 980 18.1100 125.140 STS 55 975 18.1216 124.420 3 65 5 174
1989246N16159 1989 95 WP MM SARAH 1989-09-09 00:00:00 TS 17.9800 124.860 60 975 tokyo main 276 232 OOOO______O___ jtwc_wp WP221989 17.9000 124.300 65 1 18.0000 125.200 4 60 975 9 60 60 4 400 300 0 18.0000 125.200 3 58 980 18.1000 125.300 STS 55 975 17.9000 124.300 4 65 4 234
1989246N16159 1989 95 WP MM SARAH 1989-09-09 03:00:00 TS 17.8997 124.501 main 232 192 PPPP______P___ WP221989 17.7400 124.100 65 1 17.9504 124.815 4 62 972 9 60 60 4 400 350 17.9507 124.708 3 58 977 18.1159 124.780 STS 55 975 17.7416 124.104 4 63 7 260
1989246N16159 1989 95 WP MM SARAH 1989-09-09 06:00:00 TS 17.8591 124.120 65 970 tokyo main 192 175 OOOO______P___ jtwc_wp WP221989 17.7000 123.900 65 1 17.9000 124.400 5 65 970 9 60 60 9 400 400 0 17.9000 124.200 3 58 975 18.1000 124.200 STS 55 975 17.6956 123.899 4 62 5 245
1989246N16159 1989 95 WP MM SARAH 1989-09-09 09:00:00 TS 17.6918 124.026 main 175 172 PPPP______P___ WP221989 17.7475 123.720 62 0 17.5599 124.340 5 65 970 9 60 60 9 400 400 17.5598 124.175 3 63 972 17.8398 124.175 STS 55 975 17.7518 123.720 4 61 2 201
1989246N16159 1989 95 WP MM SARAH 1989-09-09 12:00:00 TS 17.6600 124.040 65 970 tokyo main 175 175 OOOO______O___ jtwc_wp WP221989 17.9000 123.600 60 0 17.4000 124.400 5 65 970 9 60 60 9 400 400 0 17.4000 124.300 4 68 970 17.7000 124.300 STS 55 975 17.9000 123.600 2 60 3 4
1989246N16159 1989 95 WP MM SARAH 1989-09-09 15:00:00 TS 17.9843 124.035 main 182 179 PPPP______P___ WP221989 18.1125 123.563 57 0 17.8375 124.415 5 65 970 9 60 60 9 400 400 17.8525 124.322 4 68 970 18.0175 124.273 STS 57 975 18.1015 123.601 2 58 8 0
1989246N16159 1989 95 WP MM SARAH 1989-09-09 18:00:00 TS 18.4575 124.032 65 970 tokyo main 179 179 OOOO______P___ jtwc_wp WP221989 18.4000 123.600 55 0 18.5000 124.400 5 65 970 9 60 60 9 400 400 0 18.5000 124.300 4 68 970 18.5000 124.200 STS 60 975 18.3875 123.662 2 57 9 0
1989246N16159 1989 95 WP MM SARAH 1989-09-09 21:00:00 TS 18.8549 124.017 main 187 187 PPPP______P___ WP221989 18.7275 123.700 55 0 19.0375 124.330 5 67 967 9 60 60 9 400 400 18.9300 124.215 4 68 970 18.8500 124.100 STS 60 975 18.7297 123.742 2 56 8 356
1989246N16159 1989 95 WP MM SARAH 1989-09-10 00:00:00 TS 19.2400 123.980 70 965 tokyo main 200 200 OOOO______O___ jtwc_wp WP221989 19.1000 123.800 55 0 19.5000 124.200 5 70 965 9 60 60 9 400 400 0 19.3000 124.100 4 68 970 19.2000 124.000 STS 60 975 19.1000 123.800 2 55 8 354
1989246N16159 1989 95 WP MM SARAH 1989-09-10 03:00:00 TS 19.6091 123.920 main 215 215 PPPP______P___ WP221989 19.5000 123.830 55 0 19.8300 124.007 5 72 962 9 80 80 9 400 400 19.6500 124.007 4 68 970 19.6000 123.965 STS 62 972 19.4656 123.791 2 57 7 349
1989246N16159 1989 95 WP MM SARAH 1989-09-10 06:00:00 TS 19.9700 123.831 75 960 tokyo main 238 238 OOOO______P___ jtwc_wp WP221989 19.9000 123.800 55 0 20.1000 123.800 5 75 960 9 100 100 9 400 400 0 20.0000 123.900 4 68 970 20.0000 123.900 T 65 970 19.8500 123.753 2 60 8 345
1989246N16159 1989 95 WP MM SARAH 1989-09-10 09:00:00 TS 20.3449 123.711 main 258 258 PPPP______P___ WP221989 20.2725 123.730 60 0 20.4075 123.642 5 75 957 9 100 100 9 400 400 20.4300 123.773 4 68 967 20.3800 123.723 T 70 965 20.2343 123.688 2 62 8 340
1989246N16159 1989 95 WP MM SARAH 1989-09-10 12:00:00 TS 20.6800 123.560 75 955 tokyo main 291 281 OOOO______O___ jtwc_wp WP221989 20.6000 123.600 65 1 20.7000 123.500 5 75 955 9 100 100 9 400 400 0 20.8000 123.600 4 68 965 20.7000 123.500 T 75 960 20.6000 123.600 4 65 7 331
1989246N16159 1989 95 WP MM SARAH 1989-09-10 15:00:00 TS 20.9164 123.369 main 281 254 PPPP______P___ WP221989 20.8501 123.393 70 1 20.9575 123.335 5 75 955 9 100 100 9 450 400 20.9651 123.327 4 72 962 20.9000 123.270 T 80 955 20.9092 123.520 4 77 6 324
1989246N16159 1989 95 WP MM SARAH 1989-09-10 18:00:00 TS 21.1399 123.203 75 955 tokyo main 254 244 OOOO______P___ jtwc_wp WP221989 21.1000 123.200 75 1 21.2000 123.200 5 75 955 9 100 100 3 500 400 0 21.1000 123.100 4 77 960 21.1000 123.100 ST 85 950 21.1997 123.417 4 90 5 338
1989246N16159 1989 95 WP MM SARAH 1989-09-10 21:00:00 TS 21.4135 123.151 main 244 228 PPPP______P___ WP221989 21.4124 123.150 95 2 21.4125 123.150 5 75 955 9 100 100 3 500 400 21.3474 123.085 4 82 957 21.4049 123.092 ST 92 945 21.4904 123.280 4 102 6 351
1989246N16159 1989 95 WP MM SARAH 1989-09-11 00:00:00 TS 21.7600 123.100 75 955 tokyo main 227 192 OOOO______O___ jtwc_wp WP221989 21.8000 123.100 115 4 21.7000 123.100 5 75 955 9 100 100 3 500 400 0 21.7000 123.100 5 87 955 21.8000 123.100 SuperT 100 940 21.8000 123.100 4 115 9 348
1989246N16159 1989 95 WP MM SARAH 1989-09-11 03:00:00 TS 22.2483 122.959 main 192 140 PPPP______P___ WP221989 22.3149 122.945 117 4 22.1849 122.995 5 77 952 9 100 100 3 500 400 22.1999 123.003 5 92 952 22.3149 123.010 SuperT 100 940 22.2270 122.841 4 117 10 341
1989246N16159 1989 95 WP MM SARAH 1989-09-11 06:00:00 TS 22.7326 122.729 80 950 tokyo main 140 102 OOOO______P___ jtwc_wp WP221989 22.8000 122.700 120 4 22.7000 122.800 5 80 950 9 100 100 3 500 400 0 22.7000 122.800 5 97 950 22.8000 122.800 SuperT 100 940 22.6631 122.545 4 120 10 329
1989246N16159 1989 95 WP MM SARAH 1989-09-11 09:00:00 TS 23.0925 122.413 main 102 61 PPPP______P___ WP221989 23.1475 122.380 122 4 23.1099 122.503 5 80 950 9 112 112 3 500 400 23.0375 122.487 5 101 947 23.1250 122.445 SuperT 100 940 23.0426 122.251 4 122 9 308
1989246N16159 1989 95 WP MM SARAH 1989-09-11 12:00:00 TS 23.2667 121.976 80 950 tokyo main 61 20 OOOO______O___ jtwc_wp WP221989 23.3000 122.000 125 4 23.4000 122.100 5 80 950 9 125 125 3 500 400 0 23.3000 122.100 6 106 945 23.3000 122.000 SuperT 100 940 23.3000 122.000 4 125 8 281
1989246N16159 1989 95 WP MM SARAH 1989-09-11 15:00:00 TS 23.2491 121.542 main 10 0 PPPP______P___ WP221989 23.1878 121.517 107 3 23.5455 121.510 5 75 957 9 125 125 3 475 350 23.5277 121.670 6 82 960 23.3078 121.460 SuperT 87 950 23.2809 121.844 4 113 6 263
1989246N16159 1989 95 WP MM SARAH 1989-09-11 18:00:00 TS 23.1908 121.275 70 965 tokyo main 0 0 OOOO______P___ jtwc_wp WP221989 23.0000 121.200 90 2 23.6000 121.100 5 70 965 9 125 125 3 450 300 0 23.8000 121.300 3 58 975 23.3000 121.100 T 75 960 23.1497 121.738 4 102 2 274
1989246N16159 1989 95 WP MM SARAH 1989-09-11 21:00:00 TS 23.2631 121.342 main 0 0 PPPP______P___ WP221989 22.8950 121.311 85 2 23.6200 121.260 5 70 965 9 97 97 3 425 300 24.2074 121.098 3 48 977 23.4550 121.217 T 67 967 23.0186 121.663 4 91 4 41
1989246N16159 1989 95 WP MM SARAH 1989-09-12 00:00:00 TS 23.4619 121.533 70 965 tokyo main 10 10 OOOO______O___ jtwc_wp WP221989 23.0000 121.600 80 1 23.7000 121.600 5 70 965 9 70 70 3 400 300 0 24.7000 121.000 2 38 980 23.7000 121.500 STS 60 975 23.0000 121.600 4 80 6 33
1989246N16159 1989 95 WP MM SARAH 1989-09-12 03:00:00 TS 23.7265 121.671 main 20 10 PP_P______P___ WP221989 23.5200 121.881 72 1 23.9474 121.730 5 65 970 9 70 70 3 425 300 2 23.9775 121.615 STS 60 975 23.2576 121.546 4 75 7 14
1989246N16159 1989 95 WP MM SARAH 1989-09-12 06:00:00 TS 24.1074 121.719 60 975 tokyo main 10 0 OO_O______P___ jtwc_wp WP221989 24.1000 122.000 65 1 24.3000 121.800 4 60 975 9 70 70 3 450 300 0 24.3000 121.700 STS 60 975 23.6372 121.494 4 70 8 0
1989246N16159 1989 95 WP MM SARAH 1989-09-12 09:00:00 TS 24.5012 121.696 main 0 0 PP_P______P___ WP221989 24.3378 121.710 62 0 24.7149 121.902 4 57 977 9 97 70 3 450 300 24.6574 121.860 STS 57 977 24.0732 121.421 4 65 8 350
1989246N16159 1989 95 WP MM SARAH 1989-09-12 12:00:00 TS 24.8600 121.580 55 980 tokyo main 0 0 OO_O______O___ jtwc_wp WP221989 24.5000 121.300 60 0 25.1000 121.900 4 55 980 4 125 70 3 450 300 0 25.0000 121.900 STS 55 980 24.5000 121.300 2 60 7 334
1989246N16159 1989 95 WP MM SARAH 1989-09-12 15:00:00 TS 25.1102 121.376 main 0 0 PP_P______P___ WP221989 24.7848 121.092 52 0 25.3224 121.717 4 55 980 4 125 70 3 450 300 25.2576 121.660 STS 55 980 24.8137 121.088 2 55 6 318
1989246N16159 1989 95 WP MM SARAH 1989-09-12 18:00:00 TS 25.3416 121.106 55 980 tokyo main 24 24 OO_O______P___ jtwc_wp WP221989 25.1000 120.900 45 0 25.5000 121.400 4 55 980 4 125 70 3 450 300 0 25.5000 121.300 STS 55 980 25.1079 120.830 2 50 7 315
1989246N16159 1989 95 WP MM SARAH 1989-09-12 21:00:00 TS 25.6307 120.795 main 68 68 PP_P______P___ WP221989 25.4001 120.608 42 0 25.7429 120.963 4 52 982 4 3 400 225 25.7776 120.963 STS 50 982 25.3981 120.557 2 45 8 318
1989246N16159 1989 95 WP MM SARAH 1989-09-13 00:00:00 TS 25.9316 120.511 50 985 tokyo main 79 53 OO_O______O___ jtwc_wp WP221989 25.7000 120.300 40 0 26.0000 120.600 4 50 985 0 3 350 150 0 26.1000 120.700 TS 45 985 25.7000 120.300 2 40 7 326
1989246N16159 1989 95 WP MM SARAH 1989-09-13 03:00:00 TS 26.2235 120.349 main 48 14 PP_P______P___ WP221989 25.9850 120.020 37 0 26.2648 120.547 4 47 987 0 3 325 150 26.4824 120.600 TS 42 987 26.0275 120.059 2 37 6 335
1989246N16159 1989 95 WP MM SARAH 1989-09-13 06:00:00 TS 26.4929 120.211 45 990 tokyo main 14 0 OO_O______P___ jtwc_wp WP221989 26.3000 119.800 35 0 26.5000 120.600 3 45 990 0 3 300 150 0 26.9000 120.600 TS 40 990 26.3700 119.846 2 35 6 327
1989246N16159 1989 95 WP MM SARAH 1989-09-13 09:00:00 TS 26.7345 119.976 main 0 0 PP________P___ WP221989 26.6849 119.648 32 -1 26.6725 120.565 3 42 992 0 3 250 125 TS 26.7275 119.685 2 32 6 323
1989246N16159 1989 95 WP MM SARAH 1989-09-13 12:00:00 TS 26.9750 119.800 40 994 tokyo main 0 0 OO________O___ jtwc_wp WP221989 27.1000 119.600 30 -1 26.8000 120.500 3 40 994 0 3 200 100 0 27.1000 119.600 1 30 5 336
1989246N16159 1989 95 WP MM SARAH 1989-09-13 15:00:00 TS 27.1942 119.746 main 0 0 PP________P___ WP221989 27.5000 119.670 27 -1 26.9225 120.415 3 996 0 3 27.4869 119.609 1 27 4 347
1989246N16159 1989 95 WP MM SARAH 1989-09-13 18:00:00 TS 27.3197 119.707 998 tokyo main 0 0 OO________P___ jtwc_wp WP221989 27.9000 119.800 25 -1 27.0000 120.300 2 998 0 0 0 27.8852 119.696 1 25 1 301
1989246N16159 1989 95 WP MM SARAH 1989-09-13 21:00:00 TS 27.2707 119.608 main 0 0 PP________P___ WP221989 28.3000 119.910 22 -1 27.0175 120.157 2 1001 0 0 28.2908 119.834 1 22 3 216
1989246N16159 1989 95 WP MM SARAH 1989-09-14 00:00:00 TS 27.0667 119.500 1004 tokyo main 0 0 OO________O___ jtwc_wp WP221989 28.7000 120.000 20 -1 27.0000 120.000 2 1004 0 0 0 28.7000 120.000 1 20 16 199
1989246N16159 1989 95 WP MM SARAH 1989-09-14 03:00:00 TS 25.7175 119.023 main 0 0 ______________ WP221989 -1 2 0 0 1 16 193
1989246N16159 1989 95 WP MM SARAH 1989-09-14 06:00:00 TS 25.5000 119.100 main 0 ______________ -1 1 5 163

Digital Typhoon Data and Search

About IBTrACS Database

This database is a web-friendly format of International Best Track Archive for Climate Stewardship (IBTrACS), a global best track data archive curated by NOAA dating back to 1842.

Updated: 2021-11-26